sensor_id;sensor_type;location;lat;lon;timestamp;P1;durP1;ratioP1;P2;durP2;ratioP2
28988;SDS011;16089;59.952;10.818;2022-07-25T00:01:28;9.15;;;5.30;;
28988;SDS011;16089;59.952;10.818;2022-07-25T00:03:55;9.02;;;5.35;;
28988;SDS011;16089;59.952;10.818;2022-07-25T00:06:22;10.05;;;5.50;;
28988;SDS011;16089;59.952;10.818;2022-07-25T00:08:49;10.52;;;6.00;;
28988;SDS011;16089;59.952;10.818;2022-07-25T00:11:16;9.35;;;5.78;;
28988;SDS011;16089;59.952;10.818;2022-07-25T00:13:42;8.50;;;5.20;;
28988;SDS011;16089;59.952;10.818;2022-07-25T00:16:09;11.07;;;5.88;;
28988;SDS011;16089;59.952;10.818;2022-07-25T00:18:35;10.48;;;6.07;;
28988;SDS011;16089;59.952;10.818;2022-07-25T00:21:02;9.30;;;6.10;;
28988;SDS011;16089;59.952;10.818;2022-07-25T00:23:29;10.20;;;5.95;;
28988;SDS011;16089;59.952;10.818;2022-07-25T00:25:56;10.88;;;6.63;;
28988;SDS011;16089;59.952;10.818;2022-07-25T00:28:22;13.75;;;6.50;;
28988;SDS011;16089;59.952;10.818;2022-07-25T00:30:49;11.50;;;6.20;;
28988;SDS011;16089;59.952;10.818;2022-07-25T00:33:15;12.27;;;6.85;;
28988;SDS011;16089;59.952;10.818;2022-07-25T00:35:41;14.52;;;6.80;;
28988;SDS011;16089;59.952;10.818;2022-07-25T00:38:08;13.27;;;6.78;;
28988;SDS011;16089;59.952;10.818;2022-07-25T00:40:35;14.50;;;6.95;;
28988;SDS011;16089;59.952;10.818;2022-07-25T00:43:02;15.65;;;7.47;;
28988;SDS011;16089;59.952;10.818;2022-07-25T00:45:29;13.23;;;6.75;;
28988;SDS011;16089;59.952;10.818;2022-07-25T00:47:55;15.30;;;7.72;;
28988;SDS011;16089;59.952;10.818;2022-07-25T00:50:21;14.30;;;7.10;;
28988;SDS011;16089;59.952;10.818;2022-07-25T00:52:48;18.40;;;7.75;;
28988;SDS011;16089;59.952;10.818;2022-07-25T00:55:15;14.15;;;7.57;;
28988;SDS011;16089;59.952;10.818;2022-07-25T00:57:42;16.85;;;7.93;;
28988;SDS011;16089;59.952;10.818;2022-07-25T01:00:10;18.08;;;7.82;;
28988;SDS011;16089;59.952;10.818;2022-07-25T01:02:37;17.05;;;7.88;;
28988;SDS011;16089;59.952;10.818;2022-07-25T01:05:03;20.05;;;7.72;;
28988;SDS011;16089;59.952;10.818;2022-07-25T01:07:30;21.27;;;8.30;;
28988;SDS011;16089;59.952;10.818;2022-07-25T01:09:57;20.33;;;8.55;;
28988;SDS011;16089;59.952;10.818;2022-07-25T01:12:24;25.27;;;9.43;;
28988;SDS011;16089;59.952;10.818;2022-07-25T01:14:52;23.10;;;9.07;;
28988;SDS011;16089;59.952;10.818;2022-07-25T01:17:18;23.15;;;9.13;;
28988;SDS011;16089;59.952;10.818;2022-07-25T01:19:44;20.10;;;8.95;;
28988;SDS011;16089;59.952;10.818;2022-07-25T01:22:12;18.42;;;8.45;;
28988;SDS011;16089;59.952;10.818;2022-07-25T01:24:39;23.52;;;9.63;;
28988;SDS011;16089;59.952;10.818;2022-07-25T01:27:05;21.30;;;8.73;;
28988;SDS011;16089;59.952;10.818;2022-07-25T01:29:31;21.40;;;8.75;;
28988;SDS011;16089;59.952;10.818;2022-07-25T01:31:58;22.15;;;9.05;;
28988;SDS011;16089;59.952;10.818;2022-07-25T01:34:24;25.35;;;9.57;;
28988;SDS011;16089;59.952;10.818;2022-07-25T01:36:51;25.08;;;9.45;;
28988;SDS011;16089;59.952;10.818;2022-07-25T01:39:18;22.80;;;8.77;;
28988;SDS011;16089;59.952;10.818;2022-07-25T01:41:45;23.80;;;9.20;;
28988;SDS011;16089;59.952;10.818;2022-07-25T01:44:11;21.35;;;8.93;;
28988;SDS011;16089;59.952;10.818;2022-07-25T01:46:37;24.35;;;9.60;;
28988;SDS011;16089;59.952;10.818;2022-07-25T01:49:04;23.92;;;9.30;;
28988;SDS011;16089;59.952;10.818;2022-07-25T01:51:30;22.08;;;9.05;;
28988;SDS011;16089;59.952;10.818;2022-07-25T01:53:56;21.40;;;8.02;;
28988;SDS011;16089;59.952;10.818;2022-07-25T01:56:24;21.17;;;9.10;;
28988;SDS011;16089;59.952;10.818;2022-07-25T01:58:51;24.30;;;9.05;;
28988;SDS011;16089;59.952;10.818;2022-07-25T02:01:17;20.15;;;8.88;;
28988;SDS011;16089;59.952;10.818;2022-07-25T02:03:43;19.60;;;9.05;;
28988;SDS011;16089;59.952;10.818;2022-07-25T02:06:10;27.02;;;8.75;;
28988;SDS011;16089;59.952;10.818;2022-07-25T02:08:36;24.52;;;9.10;;
28988;SDS011;16089;59.952;10.818;2022-07-25T02:11:02;22.83;;;9.55;;
28988;SDS011;16089;59.952;10.818;2022-07-25T02:13:30;27.15;;;10.40;;
28988;SDS011;16089;59.952;10.818;2022-07-25T02:15:57;26.20;;;9.45;;
28988;SDS011;16089;59.952;10.818;2022-07-25T02:18:23;23.92;;;9.27;;
28988;SDS011;16089;59.952;10.818;2022-07-25T02:20:49;22.52;;;9.55;;
28988;SDS011;16089;59.952;10.818;2022-07-25T02:23:16;21.58;;;9.02;;
28988;SDS011;16089;59.952;10.818;2022-07-25T02:25:42;21.30;;;9.35;;
28988;SDS011;16089;59.952;10.818;2022-07-25T02:28:09;21.52;;;9.00;;
28988;SDS011;16089;59.952;10.818;2022-07-25T02:30:36;21.90;;;8.70;;
28988;SDS011;16089;59.952;10.818;2022-07-25T02:33:03;19.02;;;8.52;;
28988;SDS011;16089;59.952;10.818;2022-07-25T02:35:29;24.20;;;9.18;;
28988;SDS011;16089;59.952;10.818;2022-07-25T02:37:55;26.70;;;9.45;;
28988;SDS011;16089;59.952;10.818;2022-07-25T02:40:22;20.67;;;8.30;;
28988;SDS011;16089;59.952;10.818;2022-07-25T02:42:48;20.00;;;8.95;;
28988;SDS011;16089;59.952;10.818;2022-07-25T02:45:15;22.90;;;8.80;;
28988;SDS011;16089;59.952;10.818;2022-07-25T02:47:43;25.45;;;8.90;;
28988;SDS011;16089;59.952;10.818;2022-07-25T02:50:09;18.35;;;8.63;;
28988;SDS011;16089;59.952;10.818;2022-07-25T02:52:36;29.40;;;9.23;;
28988;SDS011;16089;59.952;10.818;2022-07-25T02:55:03;21.83;;;9.40;;
28988;SDS011;16089;59.952;10.818;2022-07-25T02:57:29;21.77;;;8.80;;
28988;SDS011;16089;59.952;10.818;2022-07-25T02:59:55;23.65;;;9.43;;
28988;SDS011;16089;59.952;10.818;2022-07-25T03:02:22;23.27;;;9.35;;
28988;SDS011;16089;59.952;10.818;2022-07-25T03:04:50;23.17;;;8.32;;
28988;SDS011;16089;59.952;10.818;2022-07-25T03:07:16;24.08;;;8.57;;
28988;SDS011;16089;59.952;10.818;2022-07-25T03:09:42;23.45;;;8.30;;
28988;SDS011;16089;59.952;10.818;2022-07-25T03:12:09;24.35;;;8.23;;
28988;SDS011;16089;59.952;10.818;2022-07-25T03:14:35;24.23;;;8.60;;
28988;SDS011;16089;59.952;10.818;2022-07-25T03:17:01;21.00;;;8.38;;
28988;SDS011;16089;59.952;10.818;2022-07-25T03:19:28;16.90;;;7.90;;
28988;SDS011;16089;59.952;10.818;2022-07-25T03:21:55;17.85;;;8.15;;
28988;SDS011;16089;59.952;10.818;2022-07-25T03:24:22;20.58;;;8.02;;
28988;SDS011;16089;59.952;10.818;2022-07-25T03:26:48;18.42;;;8.02;;
28988;SDS011;16089;59.952;10.818;2022-07-25T03:29:15;14.70;;;7.25;;
28988;SDS011;16089;59.952;10.818;2022-07-25T03:31:41;17.13;;;7.22;;
28988;SDS011;16089;59.952;10.818;2022-07-25T03:34:08;17.80;;;8.68;;
28988;SDS011;16089;59.952;10.818;2022-07-25T03:36:34;18.98;;;8.20;;
28988;SDS011;16089;59.952;10.818;2022-07-25T03:39:02;17.85;;;7.57;;
28988;SDS011;16089;59.952;10.818;2022-07-25T03:41:28;19.80;;;7.88;;
28988;SDS011;16089;59.952;10.818;2022-07-25T03:43:55;19.05;;;7.85;;
28988;SDS011;16089;59.952;10.818;2022-07-25T03:46:21;18.25;;;8.18;;
28988;SDS011;16089;59.952;10.818;2022-07-25T03:48:48;19.77;;;7.32;;
28988;SDS011;16089;59.952;10.818;2022-07-25T03:51:14;20.55;;;7.85;;
28988;SDS011;16089;59.952;10.818;2022-07-25T03:53:40;18.85;;;7.75;;
28988;SDS011;16089;59.952;10.818;2022-07-25T03:56:26;20.05;;;8.02;;
28988;SDS011;16089;59.952;10.818;2022-07-25T03:58:52;19.35;;;7.55;;
28988;SDS011;16089;59.952;10.818;2022-07-25T04:01:19;17.10;;;7.65;;
28988;SDS011;16089;59.952;10.818;2022-07-25T04:03:45;19.55;;;8.07;;
28988;SDS011;16089;59.952;10.818;2022-07-25T04:06:12;18.65;;;8.45;;
28988;SDS011;16089;59.952;10.818;2022-07-25T04:08:38;20.15;;;7.95;;
28988;SDS011;16089;59.952;10.818;2022-07-25T04:11:04;19.92;;;8.27;;
28988;SDS011;16089;59.952;10.818;2022-07-25T04:13:32;16.92;;;7.15;;
28988;SDS011;16089;59.952;10.818;2022-07-25T04:15:59;20.88;;;8.18;;
28988;SDS011;16089;59.952;10.818;2022-07-25T04:18:25;19.35;;;8.10;;
28988;SDS011;16089;59.952;10.818;2022-07-25T04:20:51;21.92;;;8.38;;
28988;SDS011;16089;59.952;10.818;2022-07-25T04:23:18;18.15;;;8.05;;
28988;SDS011;16089;59.952;10.818;2022-07-25T04:25:44;20.05;;;8.40;;
28988;SDS011;16089;59.952;10.818;2022-07-25T04:28:11;22.70;;;8.90;;
28988;SDS011;16089;59.952;10.818;2022-07-25T04:30:38;22.02;;;8.93;;
28988;SDS011;16089;59.952;10.818;2022-07-25T04:33:05;24.10;;;9.10;;
28988;SDS011;16089;59.952;10.818;2022-07-25T04:35:31;21.67;;;9.30;;
28988;SDS011;16089;59.952;10.818;2022-07-25T04:37:57;19.42;;;8.63;;
28988;SDS011;16089;59.952;10.818;2022-07-25T04:40:24;24.63;;;9.18;;
28988;SDS011;16089;59.952;10.818;2022-07-25T04:42:50;21.73;;;9.10;;
28988;SDS011;16089;59.952;10.818;2022-07-25T04:45:16;24.98;;;9.20;;
28988;SDS011;16089;59.952;10.818;2022-07-25T04:47:44;21.48;;;8.95;;
28988;SDS011;16089;59.952;10.818;2022-07-25T04:50:11;17.98;;;8.70;;
28988;SDS011;16089;59.952;10.818;2022-07-25T04:52:37;22.88;;;8.20;;
28988;SDS011;16089;59.952;10.818;2022-07-25T04:55:04;22.30;;;8.40;;
28988;SDS011;16089;59.952;10.818;2022-07-25T04:57:30;20.50;;;9.30;;
28988;SDS011;16089;59.952;10.818;2022-07-25T04:59:57;24.95;;;9.65;;
28988;SDS011;16089;59.952;10.818;2022-07-25T05:02:23;26.58;;;9.13;;
28988;SDS011;16089;59.952;10.818;2022-07-25T05:04:51;23.90;;;8.98;;
28988;SDS011;16089;59.952;10.818;2022-07-25T05:07:18;18.10;;;8.25;;
28988;SDS011;16089;59.952;10.818;2022-07-25T05:09:44;25.15;;;9.65;;
28988;SDS011;16089;59.952;10.818;2022-07-25T05:12:11;20.33;;;8.23;;
28988;SDS011;16089;59.952;10.818;2022-07-25T05:14:37;21.27;;;8.73;;
28988;SDS011;16089;59.952;10.818;2022-07-25T05:17:04;21.10;;;8.77;;
28988;SDS011;16089;59.952;10.818;2022-07-25T05:19:30;20.77;;;8.48;;
28988;SDS011;16089;59.952;10.818;2022-07-25T05:21:58;19.95;;;9.23;;
28988;SDS011;16089;59.952;10.818;2022-07-25T05:24:25;22.63;;;8.85;;
28988;SDS011;16089;59.952;10.818;2022-07-25T05:26:51;19.23;;;8.57;;
28988;SDS011;16089;59.952;10.818;2022-07-25T05:29:18;20.02;;;9.02;;
28988;SDS011;16089;59.952;10.818;2022-07-25T05:31:44;21.27;;;9.02;;
28988;SDS011;16089;59.952;10.818;2022-07-25T05:34:11;20.75;;;8.70;;
28988;SDS011;16089;59.952;10.818;2022-07-25T05:36:37;17.70;;;8.38;;
28988;SDS011;16089;59.952;10.818;2022-07-25T05:39:05;19.10;;;8.38;;
28988;SDS011;16089;59.952;10.818;2022-07-25T05:41:31;20.33;;;8.93;;
28988;SDS011;16089;59.952;10.818;2022-07-25T05:43:57;23.10;;;9.93;;
28988;SDS011;16089;59.952;10.818;2022-07-25T05:46:24;18.83;;;9.63;;
28988;SDS011;16089;59.952;10.818;2022-07-25T05:48:50;27.33;;;10.52;;
28988;SDS011;16089;59.952;10.818;2022-07-25T05:51:16;17.10;;;9.05;;
28988;SDS011;16089;59.952;10.818;2022-07-25T05:53:43;21.95;;;10.35;;
28988;SDS011;16089;59.952;10.818;2022-07-25T05:56:10;24.15;;;10.75;;
28988;SDS011;16089;59.952;10.818;2022-07-25T05:58:37;26.40;;;10.90;;
28988;SDS011;16089;59.952;10.818;2022-07-25T06:01:05;22.70;;;10.45;;
28988;SDS011;16089;59.952;10.818;2022-07-25T06:03:31;22.83;;;11.85;;
28988;SDS011;16089;59.952;10.818;2022-07-25T06:05:58;22.35;;;10.70;;
28988;SDS011;16089;59.952;10.818;2022-07-25T06:08:24;24.63;;;11.38;;
28988;SDS011;16089;59.952;10.818;2022-07-25T06:10:52;22.05;;;10.85;;
28988;SDS011;16089;59.952;10.818;2022-07-25T06:13:20;23.50;;;11.07;;
28988;SDS011;16089;59.952;10.818;2022-07-25T06:15:46;23.27;;;11.05;;
28988;SDS011;16089;59.952;10.818;2022-07-25T06:18:13;23.02;;;10.77;;
28988;SDS011;16089;59.952;10.818;2022-07-25T06:20:39;18.45;;;10.88;;
28988;SDS011;16089;59.952;10.818;2022-07-25T06:23:06;20.67;;;10.40;;
28988;SDS011;16089;59.952;10.818;2022-07-25T06:25:32;22.70;;;10.15;;
28988;SDS011;16089;59.952;10.818;2022-07-25T06:27:58;17.90;;;10.45;;
28988;SDS011;16089;59.952;10.818;2022-07-25T06:30:26;16.80;;;9.65;;
28988;SDS011;16089;59.952;10.818;2022-07-25T06:32:52;19.95;;;9.70;;
28988;SDS011;16089;59.952;10.818;2022-07-25T06:35:19;14.43;;;7.30;;
28988;SDS011;16089;59.952;10.818;2022-07-25T06:37:45;12.68;;;6.88;;
28988;SDS011;16089;59.952;10.818;2022-07-25T06:40:12;14.13;;;6.43;;
28988;SDS011;16089;59.952;10.818;2022-07-25T06:42:39;10.88;;;5.40;;
28988;SDS011;16089;59.952;10.818;2022-07-25T06:45:07;12.15;;;4.97;;
28988;SDS011;16089;59.952;10.818;2022-07-25T06:47:36;10.40;;;5.22;;
28988;SDS011;16089;59.952;10.818;2022-07-25T06:50:03;9.52;;;4.40;;
28988;SDS011;16089;59.952;10.818;2022-07-25T06:52:29;9.75;;;5.32;;
28988;SDS011;16089;59.952;10.818;2022-07-25T06:54:55;8.25;;;5.35;;
28988;SDS011;16089;59.952;10.818;2022-07-25T06:57:22;11.85;;;5.13;;
28988;SDS011;16089;59.952;10.818;2022-07-25T06:59:48;9.43;;;5.43;;
28988;SDS011;16089;59.952;10.818;2022-07-25T07:02:15;9.52;;;5.53;;
28988;SDS011;16089;59.952;10.818;2022-07-25T07:04:42;9.15;;;5.45;;
28988;SDS011;16089;59.952;10.818;2022-07-25T07:07:09;7.68;;;5.63;;
28988;SDS011;16089;59.952;10.818;2022-07-25T07:09:35;8.85;;;5.18;;
28988;SDS011;16089;59.952;10.818;2022-07-25T07:12:02;9.45;;;5.75;;
28988;SDS011;16089;59.952;10.818;2022-07-25T07:14:28;10.95;;;6.28;;
28988;SDS011;16089;59.952;10.818;2022-07-25T07:16:55;8.73;;;5.50;;
28988;SDS011;16089;59.952;10.818;2022-07-25T07:19:21;9.70;;;6.03;;
28988;SDS011;16089;59.952;10.818;2022-07-25T07:21:50;9.85;;;6.50;;
28988;SDS011;16089;59.952;10.818;2022-07-25T07:24:16;8.52;;;5.60;;
28988;SDS011;16089;59.952;10.818;2022-07-25T07:26:43;8.40;;;5.68;;
28988;SDS011;16089;59.952;10.818;2022-07-25T07:29:09;9.95;;;6.40;;
28988;SDS011;16089;59.952;10.818;2022-07-25T07:31:35;9.80;;;5.93;;
28988;SDS011;16089;59.952;10.818;2022-07-25T07:34:02;9.27;;;5.95;;
28988;SDS011;16089;59.952;10.818;2022-07-25T07:36:28;10.57;;;5.85;;
28988;SDS011;16089;59.952;10.818;2022-07-25T07:38:56;9.27;;;6.30;;
28988;SDS011;16089;59.952;10.818;2022-07-25T07:41:22;10.55;;;6.30;;
28988;SDS011;16089;59.952;10.818;2022-07-25T07:43:49;8.98;;;6.22;;
28988;SDS011;16089;59.952;10.818;2022-07-25T07:46:15;10.50;;;6.07;;
28988;SDS011;16089;59.952;10.818;2022-07-25T07:48:41;9.20;;;6.00;;
28988;SDS011;16089;59.952;10.818;2022-07-25T07:51:08;9.25;;;6.25;;
28988;SDS011;16089;59.952;10.818;2022-07-25T07:53:34;9.30;;;5.63;;
28988;SDS011;16089;59.952;10.818;2022-07-25T07:56:19;10.05;;;6.03;;
28988;SDS011;16089;59.952;10.818;2022-07-25T07:58:46;9.85;;;6.93;;
28988;SDS011;16089;59.952;10.818;2022-07-25T08:01:12;10.02;;;6.80;;
28988;SDS011;16089;59.952;10.818;2022-07-25T08:03:39;10.48;;;6.75;;
28988;SDS011;16089;59.952;10.818;2022-07-25T08:06:05;11.70;;;8.10;;
28988;SDS011;16089;59.952;10.818;2022-07-25T08:08:32;11.02;;;7.68;;
28988;SDS011;16089;59.952;10.818;2022-07-25T08:10:58;16.80;;;10.02;;
28988;SDS011;16089;59.952;10.818;2022-07-25T08:13:27;15.05;;;9.60;;
28988;SDS011;16089;59.952;10.818;2022-07-25T08:15:54;15.85;;;10.73;;
28988;SDS011;16089;59.952;10.818;2022-07-25T08:18:22;16.13;;;10.27;;
28988;SDS011;16089;59.952;10.818;2022-07-25T08:20:48;17.55;;;11.55;;
28988;SDS011;16089;59.952;10.818;2022-07-25T08:23:16;17.73;;;11.10;;
28988;SDS011;16089;59.952;10.818;2022-07-25T08:25:43;21.92;;;12.48;;
28988;SDS011;16089;59.952;10.818;2022-07-25T08:28:09;24.33;;;13.20;;
28988;SDS011;16089;59.952;10.818;2022-07-25T08:30:37;19.88;;;12.98;;
28988;SDS011;16089;59.952;10.818;2022-07-25T08:33:04;19.25;;;13.38;;
28988;SDS011;16089;59.952;10.818;2022-07-25T08:35:31;26.08;;;13.57;;
28988;SDS011;16089;59.952;10.818;2022-07-25T08:37:58;23.85;;;15.15;;
28988;SDS011;16089;59.952;10.818;2022-07-25T08:40:26;29.17;;;16.25;;
28988;SDS011;16089;59.952;10.818;2022-07-25T08:42:52;24.88;;;15.60;;
28988;SDS011;16089;59.952;10.818;2022-07-25T08:45:20;26.00;;;14.77;;
28988;SDS011;16089;59.952;10.818;2022-07-25T08:47:50;21.58;;;15.05;;
28988;SDS011;16089;59.952;10.818;2022-07-25T08:50:16;26.50;;;14.90;;
28988;SDS011;16089;59.952;10.818;2022-07-25T08:52:43;23.65;;;15.73;;
28988;SDS011;16089;59.952;10.818;2022-07-25T08:55:12;25.50;;;15.10;;
28988;SDS011;16089;59.952;10.818;2022-07-25T08:57:41;25.70;;;15.05;;
28988;SDS011;16089;59.952;10.818;2022-07-25T09:00:09;30.50;;;17.02;;
28988;SDS011;16089;59.952;10.818;2022-07-25T09:02:35;26.98;;;15.25;;
28988;SDS011;16089;59.952;10.818;2022-07-25T09:05:04;24.90;;;15.15;;
28988;SDS011;16089;59.952;10.818;2022-07-25T09:07:31;26.73;;;14.75;;
28988;SDS011;16089;59.952;10.818;2022-07-25T09:09:57;24.30;;;15.98;;
28988;SDS011;16089;59.952;10.818;2022-07-25T09:12:25;27.25;;;14.63;;
28988;SDS011;16089;59.952;10.818;2022-07-25T09:14:52;25.73;;;15.07;;
28988;SDS011;16089;59.952;10.818;2022-07-25T09:17:18;25.42;;;15.23;;
28988;SDS011;16089;59.952;10.818;2022-07-25T09:19:50;27.20;;;15.65;;
28988;SDS011;16089;59.952;10.818;2022-07-25T09:22:18;28.10;;;14.82;;
28988;SDS011;16089;59.952;10.818;2022-07-25T09:24:44;28.40;;;14.40;;
28988;SDS011;16089;59.952;10.818;2022-07-25T09:27:10;27.90;;;13.82;;
28988;SDS011;16089;59.952;10.818;2022-07-25T09:29:37;23.80;;;13.13;;
28988;SDS011;16089;59.952;10.818;2022-07-25T09:32:12;24.98;;;14.18;;
28988;SDS011;16089;59.952;10.818;2022-07-25T09:34:40;24.30;;;12.52;;
28988;SDS011;16089;59.952;10.818;2022-07-25T09:37:07;26.35;;;13.88;;
28988;SDS011;16089;59.952;10.818;2022-07-25T09:39:36;23.80;;;12.63;;
28988;SDS011;16089;59.952;10.818;2022-07-25T09:42:13;27.40;;;12.85;;
28988;SDS011;16089;59.952;10.818;2022-07-25T09:44:39;24.13;;;12.80;;
28988;SDS011;16089;59.952;10.818;2022-07-25T09:47:08;24.63;;;11.75;;
28988;SDS011;16089;59.952;10.818;2022-07-25T09:49:37;23.20;;;11.15;;
28988;SDS011;16089;59.952;10.818;2022-07-25T09:52:04;19.35;;;11.40;;
28988;SDS011;16089;59.952;10.818;2022-07-25T09:54:31;20.90;;;11.60;;
28988;SDS011;16089;59.952;10.818;2022-07-25T09:56:59;26.35;;;11.45;;
28988;SDS011;16089;59.952;10.818;2022-07-25T09:59:25;22.27;;;10.80;;
28988;SDS011;16089;59.952;10.818;2022-07-25T10:01:53;25.75;;;11.00;;
28988;SDS011;16089;59.952;10.818;2022-07-25T10:04:21;23.63;;;10.00;;
28988;SDS011;16089;59.952;10.818;2022-07-25T10:06:51;29.13;;;11.43;;
28988;SDS011;16089;59.952;10.818;2022-07-25T10:09:19;26.17;;;11.15;;
28988;SDS011;16089;59.952;10.818;2022-07-25T10:12:04;23.80;;;11.63;;
28988;SDS011;16089;59.952;10.818;2022-07-25T10:14:31;20.30;;;9.82;;
28988;SDS011;16089;59.952;10.818;2022-07-25T10:16:58;22.30;;;10.10;;
28988;SDS011;16089;59.952;10.818;2022-07-25T10:19:34;20.17;;;8.30;;
28988;SDS011;16089;59.952;10.818;2022-07-25T10:22:01;17.55;;;7.93;;
28988;SDS011;16089;59.952;10.818;2022-07-25T10:24:31;22.27;;;7.93;;
28988;SDS011;16089;59.952;10.818;2022-07-25T10:27:04;21.00;;;8.55;;
28988;SDS011;16089;59.952;10.818;2022-07-25T10:29:34;19.52;;;8.43;;
28988;SDS011;16089;59.952;10.818;2022-07-25T10:32:04;18.65;;;8.32;;
28988;SDS011;16089;59.952;10.818;2022-07-25T10:34:31;24.10;;;8.18;;
28988;SDS011;16089;59.952;10.818;2022-07-25T10:37:07;21.52;;;9.05;;
28988;SDS011;16089;59.952;10.818;2022-07-25T10:39:36;23.75;;;9.13;;
28988;SDS011;16089;59.952;10.818;2022-07-25T10:42:03;22.02;;;8.32;;
28988;SDS011;16089;59.952;10.818;2022-07-25T10:44:39;23.65;;;7.28;;
28988;SDS011;16089;59.952;10.818;2022-07-25T10:47:07;22.23;;;8.70;;
28988;SDS011;16089;59.952;10.818;2022-07-25T10:49:34;16.00;;;8.27;;
28988;SDS011;16089;59.952;10.818;2022-07-25T10:52:02;25.38;;;8.27;;
28988;SDS011;16089;59.952;10.818;2022-07-25T10:54:31;23.88;;;9.07;;
28988;SDS011;16089;59.952;10.818;2022-07-25T10:56:58;18.63;;;8.35;;
28988;SDS011;16089;59.952;10.818;2022-07-25T10:59:28;25.00;;;9.57;;
28988;SDS011;16089;59.952;10.818;2022-07-25T11:01:56;20.73;;;9.63;;
28988;SDS011;16089;59.952;10.818;2022-07-25T11:04:23;29.65;;;10.98;;
28988;SDS011;16089;59.952;10.818;2022-07-25T11:06:49;32.63;;;10.90;;
28988;SDS011;16089;59.952;10.818;2022-07-25T11:09:16;27.85;;;9.73;;
28988;SDS011;16089;59.952;10.818;2022-07-25T11:11:44;24.80;;;9.90;;
28988;SDS011;16089;59.952;10.818;2022-07-25T11:14:13;25.60;;;9.45;;
28988;SDS011;16089;59.952;10.818;2022-07-25T11:16:40;27.75;;;10.18;;
28988;SDS011;16089;59.952;10.818;2022-07-25T11:19:15;30.35;;;10.38;;
28988;SDS011;16089;59.952;10.818;2022-07-25T11:21:42;34.55;;;10.88;;
28988;SDS011;16089;59.952;10.818;2022-07-25T11:24:09;29.70;;;10.43;;
28988;SDS011;16089;59.952;10.818;2022-07-25T11:26:42;30.40;;;10.50;;
28988;SDS011;16089;59.952;10.818;2022-07-25T11:29:16;29.60;;;9.57;;
28988;SDS011;16089;59.952;10.818;2022-07-25T11:31:42;21.27;;;9.55;;
28988;SDS011;16089;59.952;10.818;2022-07-25T11:34:09;26.30;;;10.00;;
28988;SDS011;16089;59.952;10.818;2022-07-25T11:36:37;26.40;;;9.88;;
28988;SDS011;16089;59.952;10.818;2022-07-25T11:39:03;27.50;;;10.20;;
28988;SDS011;16089;59.952;10.818;2022-07-25T11:41:29;32.88;;;10.40;;
28988;SDS011;16089;59.952;10.818;2022-07-25T11:43:56;26.70;;;11.05;;
28988;SDS011;16089;59.952;10.818;2022-07-25T11:46:22;26.42;;;10.52;;
28988;SDS011;16089;59.952;10.818;2022-07-25T11:48:48;29.30;;;11.43;;
28988;SDS011;16089;59.952;10.818;2022-07-25T11:51:15;28.13;;;10.98;;
28988;SDS011;16089;59.952;10.818;2022-07-25T11:53:44;25.63;;;9.65;;
28988;SDS011;16089;59.952;10.818;2022-07-25T11:56:14;22.17;;;9.10;;
28988;SDS011;16089;59.952;10.818;2022-07-25T11:58:41;22.55;;;9.20;;
28988;SDS011;16089;59.952;10.818;2022-07-25T12:01:11;19.15;;;9.80;;
28988;SDS011;16089;59.952;10.818;2022-07-25T12:03:38;19.15;;;9.05;;
28988;SDS011;16089;59.952;10.818;2022-07-25T12:06:06;19.08;;;9.15;;
28988;SDS011;16089;59.952;10.818;2022-07-25T12:08:35;16.95;;;8.02;;
28988;SDS011;16089;59.952;10.818;2022-07-25T12:11:03;23.00;;;8.10;;
28988;SDS011;16089;59.952;10.818;2022-07-25T12:13:30;17.98;;;8.40;;
28988;SDS011;16089;59.952;10.818;2022-07-25T12:15:57;17.88;;;8.07;;
28988;SDS011;16089;59.952;10.818;2022-07-25T12:18:23;19.20;;;8.25;;
28988;SDS011;16089;59.952;10.818;2022-07-25T12:20:50;15.93;;;8.60;;
28988;SDS011;16089;59.952;10.818;2022-07-25T12:23:17;19.30;;;8.60;;
28988;SDS011;16089;59.952;10.818;2022-07-25T12:25:45;18.45;;;7.38;;
28988;SDS011;16089;59.952;10.818;2022-07-25T12:28:13;15.77;;;7.43;;
28988;SDS011;16089;59.952;10.818;2022-07-25T12:30:40;15.27;;;7.70;;
28988;SDS011;16089;59.952;10.818;2022-07-25T12:33:07;14.38;;;7.03;;
28988;SDS011;16089;59.952;10.818;2022-07-25T12:35:34;17.88;;;7.90;;
28988;SDS011;16089;59.952;10.818;2022-07-25T12:38:01;17.48;;;8.13;;
28988;SDS011;16089;59.952;10.818;2022-07-25T12:40:28;13.32;;;5.90;;
28988;SDS011;16089;59.952;10.818;2022-07-25T12:42:54;14.32;;;6.90;;
28988;SDS011;16089;59.952;10.818;2022-07-25T12:45:22;13.90;;;7.60;;
28988;SDS011;16089;59.952;10.818;2022-07-25T12:47:49;11.90;;;7.18;;
28988;SDS011;16089;59.952;10.818;2022-07-25T12:50:15;16.13;;;8.30;;
28988;SDS011;16089;59.952;10.818;2022-07-25T12:52:43;17.23;;;7.38;;
28988;SDS011;16089;59.952;10.818;2022-07-25T12:55:11;12.55;;;6.93;;
28988;SDS011;16089;59.952;10.818;2022-07-25T12:57:37;11.90;;;6.95;;
28988;SDS011;16089;59.952;10.818;2022-07-25T13:00:04;13.65;;;7.40;;
28988;SDS011;16089;59.952;10.818;2022-07-25T13:02:32;15.93;;;8.00;;
28988;SDS011;16089;59.952;10.818;2022-07-25T13:04:59;16.17;;;8.00;;
28988;SDS011;16089;59.952;10.818;2022-07-25T13:07:25;14.65;;;8.20;;
28988;SDS011;16089;59.952;10.818;2022-07-25T13:09:52;19.63;;;7.72;;
28988;SDS011;16089;59.952;10.818;2022-07-25T13:12:18;16.63;;;7.63;;
28988;SDS011;16089;59.952;10.818;2022-07-25T13:14:46;15.20;;;7.85;;
28988;SDS011;16089;59.952;10.818;2022-07-25T13:17:13;16.92;;;7.75;;
28988;SDS011;16089;59.952;10.818;2022-07-25T13:19:41;14.90;;;7.57;;
28988;SDS011;16089;59.952;10.818;2022-07-25T13:22:07;18.08;;;8.23;;
28988;SDS011;16089;59.952;10.818;2022-07-25T13:24:33;19.38;;;8.43;;
28988;SDS011;16089;59.952;10.818;2022-07-25T13:27:01;16.88;;;8.10;;
28988;SDS011;16089;59.952;10.818;2022-07-25T13:29:27;21.02;;;8.63;;
28988;SDS011;16089;59.952;10.818;2022-07-25T13:31:54;16.88;;;8.68;;
28988;SDS011;16089;59.952;10.818;2022-07-25T13:34:20;18.33;;;8.07;;
28988;SDS011;16089;59.952;10.818;2022-07-25T13:36:49;16.98;;;8.32;;
28988;SDS011;16089;59.952;10.818;2022-07-25T13:39:15;16.20;;;8.20;;
28988;SDS011;16089;59.952;10.818;2022-07-25T13:41:42;16.45;;;8.18;;
28988;SDS011;16089;59.952;10.818;2022-07-25T13:44:08;17.33;;;7.88;;
28988;SDS011;16089;59.952;10.818;2022-07-25T13:46:34;16.33;;;8.32;;
28988;SDS011;16089;59.952;10.818;2022-07-25T13:49:01;17.75;;;8.68;;
28988;SDS011;16089;59.952;10.818;2022-07-25T13:51:27;17.05;;;8.35;;
28988;SDS011;16089;59.952;10.818;2022-07-25T13:53:55;17.30;;;7.95;;
28988;SDS011;16089;59.952;10.818;2022-07-25T13:56:21;21.30;;;7.88;;
28988;SDS011;16089;59.952;10.818;2022-07-25T13:58:47;16.10;;;6.57;;
28988;SDS011;16089;59.952;10.818;2022-07-25T14:01:14;16.23;;;7.40;;
28988;SDS011;16089;59.952;10.818;2022-07-25T14:03:40;16.33;;;7.15;;
28988;SDS011;16089;59.952;10.818;2022-07-25T14:06:08;13.63;;;6.70;;
28988;SDS011;16089;59.952;10.818;2022-07-25T14:08:34;16.13;;;6.82;;
28988;SDS011;16089;59.952;10.818;2022-07-25T14:11:02;17.27;;;7.10;;
28988;SDS011;16089;59.952;10.818;2022-07-25T14:13:29;17.02;;;6.13;;
28988;SDS011;16089;59.952;10.818;2022-07-25T14:15:56;18.45;;;7.07;;
28988;SDS011;16089;59.952;10.818;2022-07-25T14:18:23;17.40;;;6.45;;